TimeCST,TemperatureF,Dew PointF,Humidity,Sea Level PressureIn,VisibilityMPH,Wind Direction,Wind SpeedMPH,Gust SpeedMPH,PrecipitationIn,Events,Conditions,WindDirDegrees,DateUTC
12:18 AM,3.2,-4.0,72,29.97,10.0,NW,23.0,41.4,N/A,,Mostly Cloudy,310,2013-01-20 06:18:00
12:54 AM,3.9,-4.0,70,30.05,10.0,NW,18.4,29.9,N/A,,Mostly Cloudy,310,2013-01-20 06:54:00
1:35 AM,3.2,-5.8,66,30.02,10.0,NW,27.6,34.5,N/A,,Scattered Clouds,310,2013-01-20 07:35:00
2:16 AM,3.2,-5.8,66,30.07,10.0,WNW,18.4,25.3,N/A,,Mostly Cloudy,300,2013-01-20 08:16:00
2:24 AM,3.2,-5.8,66,30.07,10.0,NW,17.3,25.3,N/A,,Scattered Clouds,310,2013-01-20 08:24:00
2:54 AM,1.9,-6.0,69,30.16,10.0,NW,20.7,27.6,N/A,,Clear,310,2013-01-20 08:54:00
3:54 AM,1.9,-7.1,66,30.17,10.0,NW,18.4,26.5,N/A,,Clear,310,2013-01-20 09:54:00
4:54 AM,1.0,-7.1,69,30.21,10.0,NW,18.4,24.2,N/A,,Clear,310,2013-01-20 10:54:00
5:54 AM,-0.0,-7.1,72,30.24,10.0,NW,18.4,25.3,N/A,,Partly Cloudy,310,2013-01-20 11:54:00
6:54 AM,-0.0,-7.1,72,30.28,10.0,NW,18.4,-,N/A,,Partly Cloudy,310,2013-01-20 12:54:00
7:54 AM,-0.9,-7.1,75,30.30,10.0,NW,11.5,-,N/A,,Clear,310,2013-01-20 13:54:00
8:54 AM,-0.0,-7.1,72,30.32,10.0,NW,17.3,-,N/A,,Clear,310,2013-01-20 14:54:00
9:54 AM,1.9,-8.0,63,30.32,10.0,NW,16.1,-,N/A,,Clear,310,2013-01-20 15:54:00
10:54 AM,3.0,-6.0,66,30.34,10.0,WNW,16.1,-,N/A,,Clear,290,2013-01-20 16:54:00
12:54 PM,8.1,-4.0,58,30.30,10.0,WNW,10.4,-,N/A,,Clear,300,2013-01-20 18:54:00
1:54 PM,8.1,-6.0,53,30.30,10.0,NW,16.1,21.9,N/A,,Mostly Cloudy,310,2013-01-20 19:54:00
3:54 PM,7.0,-7.1,53,30.28,10.0,WNW,15.0,-,N/A,,Clear,300,2013-01-20 21:54:00
4:54 PM,6.1,-8.0,53,30.28,10.0,WNW,10.4,-,N/A,,Overcast,290,2013-01-20 22:54:00
5:54 PM,3.9,-7.1,60,30.27,10.0,WNW,11.5,-,N/A,,Partly Cloudy,290,2013-01-20 23:54:00
6:54 PM,3.9,-7.1,60,30.27,10.0,WNW,12.7,-,N/A,,Scattered Clouds,290,2013-01-21 00:54:00
7:54 PM,3.9,-6.0,64,30.27,10.0,WNW,17.3,20.7,N/A,,Overcast,300,2013-01-21 01:54:00
8:54 PM,3.0,-6.0,66,30.25,10.0,WNW,8.1,-,N/A,,Overcast,300,2013-01-21 02:54:00
9:54 PM,3.0,-5.1,69,30.24,10.0,NW,11.5,-,N/A,,Overcast,320,2013-01-21 03:54:00
10:54 PM,1.9,-4.0,76,30.23,8.0,NW,8.1,-,N/A,,Overcast,310,2013-01-21 04:54:00
11:02 PM,1.4,-2.2,85,30.12,2.5,NW,9.2,-,0.00,Snow,Light Snow,310,2013-01-21 05:02:00
11:13 PM,1.4,-2.2,85,30.12,1.5,NW,12.7,-,0.00,Snow,Light Snow,320,2013-01-21 05:13:00
11:37 PM,1.4,-4.0,78,30.12,3.0,WNW,11.5,-,0.00,Snow,Light Snow,300,2013-01-21 05:37:00
11:47 PM,1.4,-5.8,72,30.11,10.0,WNW,9.2,-,0.00,,Mostly Cloudy,300,2013-01-21 05:47:00
11:54 PM,1.0,-5.1,75,30.21,10.0,WNW,9.2,-,0.00,,Mostly Cloudy,300,2013-01-21 05:54:00